createdAt,value
2022-09-24T00:01:24.813Z,90.90
2022-09-24T00:03:54.692Z,90.90
2022-09-24T00:06:22.158Z,91.00
2022-09-24T00:08:50.963Z,91.10
2022-09-24T00:11:20.196Z,91.10
2022-09-24T00:13:47.965Z,91.30
2022-09-24T00:16:17.444Z,91.60
2022-09-24T00:18:44.740Z,91.80
2022-09-24T00:21:12.565Z,91.80
2022-09-24T00:23:39.545Z,91.80
2022-09-24T00:26:24.912Z,91.70
2022-09-24T00:28:52.577Z,91.80
2022-09-24T00:31:19.372Z,92.00
2022-09-24T00:33:46.171Z,92.20
2022-09-24T00:36:14.904Z,92.30
2022-09-24T00:38:41.624Z,92.30
2022-09-24T00:41:08.389Z,92.30
2022-09-24T00:43:37.752Z,92.30
2022-09-24T00:46:07.513Z,92.30
2022-09-24T00:48:34.779Z,92.40
2022-09-24T00:51:04.158Z,92.30
2022-09-24T00:53:33.314Z,92.30
2022-09-24T00:56:02.995Z,92.30
2022-09-24T00:58:31.367Z,92.40
2022-09-24T01:01:05.397Z,92.60
2022-09-24T01:03:40.143Z,92.70
2022-09-24T01:06:10.125Z,92.80
2022-09-24T01:08:36.939Z,93.00
2022-09-24T01:11:32.827Z,93.10
2022-09-24T01:14:14.301Z,93.20
2022-09-24T01:17:14.222Z,93.20
2022-09-24T01:19:52.318Z,93.20
2022-09-24T01:22:46.347Z,93.20
2022-09-24T01:25:31.560Z,93.30
2022-09-24T01:28:35.962Z,93.40
2022-09-24T01:31:16.837Z,93.40
2022-09-24T01:33:47.774Z,93.30
2022-09-24T01:36:16.967Z,93.20
2022-09-24T01:38:44.927Z,93.20
2022-09-24T01:41:15.953Z,93.30
2022-09-24T01:43:43.714Z,93.40
2022-09-24T01:46:12.977Z,93.60
2022-09-24T01:48:41.168Z,93.60
2022-09-24T01:51:08.028Z,93.70
2022-09-24T01:53:44.853Z,93.90
2022-09-24T01:56:18.704Z,94.10
2022-09-24T01:58:51.356Z,94.30
2022-09-24T02:01:24.998Z,94.30
2022-09-24T02:03:57.024Z,94.30
2022-09-24T02:06:47.815Z,94.50
2022-09-24T02:09:37.143Z,94.50
2022-09-24T02:12:29.689Z,94.50
2022-09-24T02:15:03.318Z,94.50
2022-09-24T02:17:35.329Z,94.60
2022-09-24T02:20:04.199Z,94.70
2022-09-24T02:22:32.248Z,94.80
2022-09-24T02:25:01.799Z,94.80
2022-09-24T02:27:28.853Z,94.90
2022-09-24T02:30:00.036Z,94.90
2022-09-24T02:32:31.162Z,95.00
2022-09-24T02:35:01.973Z,95.10
2022-09-24T02:37:29.519Z,95.20
2022-09-24T02:39:56.368Z,95.20
2022-09-24T02:42:23.364Z,95.40
2022-09-24T02:44:50.251Z,95.50
2022-09-24T02:47:16.989Z,95.60
2022-09-24T02:49:43.699Z,95.80
2022-09-24T02:52:10.474Z,95.80
2022-09-24T02:54:37.944Z,95.60
2022-09-24T02:57:04.869Z,95.60
2022-09-24T02:59:31.686Z,95.60
2022-09-24T03:01:58.594Z,95.70
2022-09-24T03:04:26.270Z,95.50
2022-09-24T03:06:53.418Z,95.60
2022-09-24T03:09:20.185Z,95.70
2022-09-24T03:11:52.689Z,95.70
2022-09-24T03:14:19.399Z,95.80
2022-09-24T03:16:46.161Z,96.10
2022-09-24T03:19:12.923Z,96.30
2022-09-24T03:21:39.721Z,96.50
2022-09-24T03:24:06.764Z,96.80
2022-09-24T03:26:33.576Z,96.90
2022-09-24T03:29:00.359Z,97.00
2022-09-24T03:31:27.176Z,97.20
2022-09-24T03:33:54.499Z,97.40
2022-09-24T03:36:23.476Z,97.40
2022-09-24T03:38:54.294Z,97.50
2022-09-24T03:41:21.159Z,97.50
2022-09-24T03:43:47.885Z,97.80
2022-09-24T03:46:17.248Z,97.90
2022-09-24T03:48:44.474Z,98.10
2022-09-24T03:51:14.183Z,98.30
2022-09-24T03:53:41.220Z,98.40
2022-09-24T03:56:09.711Z,98.60
2022-09-24T03:58:38.754Z,98.60
2022-09-24T04:01:10.367Z,98.70
2022-09-24T04:03:37.654Z,98.80
2022-09-24T04:06:05.395Z,98.80
2022-09-24T04:08:32.498Z,99.10
2022-09-24T04:10:59.710Z,99.30
2022-09-24T04:13:26.785Z,99.40
2022-09-24T04:15:55.068Z,99.30
2022-09-24T04:18:22.548Z,99.50
2022-09-24T04:20:49.368Z,99.60
2022-09-24T04:23:16.322Z,99.80
2022-09-24T04:25:44.540Z,99.80
2022-09-24T04:28:12.090Z,99.90
2022-09-24T04:30:39.528Z,99.90
2022-09-24T04:33:07.265Z,99.90
2022-09-24T04:35:36.232Z,99.90
2022-09-24T04:38:04.672Z,99.90
2022-09-24T04:40:32.416Z,99.90
2022-09-24T04:42:59.558Z,99.90
2022-09-24T04:45:26.902Z,99.90
2022-09-24T04:47:57.470Z,99.90
2022-09-24T04:50:26.401Z,99.90
2022-09-24T04:52:54.236Z,99.80
2022-09-24T04:55:21.961Z,99.90
2022-09-24T04:57:48.778Z,99.80
2022-09-24T05:00:19.307Z,99.80
2022-09-24T05:02:46.836Z,99.70
2022-09-24T05:05:13.990Z,99.70
2022-09-24T05:07:42.711Z,99.70
2022-09-24T05:10:09.660Z,99.80
2022-09-24T05:12:36.594Z,99.80
2022-09-24T05:15:04.465Z,99.90
2022-09-24T05:17:31.377Z,99.90
2022-09-24T05:19:59.611Z,99.80
2022-09-24T05:22:30.185Z,99.90
2022-09-24T05:24:56.963Z,99.90
2022-09-24T05:27:23.814Z,99.90
2022-09-24T05:29:50.603Z,99.90
2022-09-24T05:32:20.232Z,99.90
2022-09-24T05:34:47.707Z,99.90
2022-09-24T05:37:15.520Z,99.90
2022-09-24T05:39:42.517Z,99.90
2022-09-24T05:42:15.704Z,99.90
2022-09-24T05:44:45.657Z,99.90
2022-09-24T05:47:16.379Z,99.90
2022-09-24T05:49:43.195Z,99.90
2022-09-24T05:52:10.059Z,99.90
2022-09-24T05:54:36.819Z,99.90
2022-09-24T05:57:03.802Z,99.90
2022-09-24T05:59:30.590Z,99.90
2022-09-24T06:01:57.525Z,99.90
2022-09-24T06:04:24.393Z,99.50
2022-09-24T06:06:52.275Z,99.90
2022-09-24T06:09:19.079Z,99.40
2022-09-24T06:11:46.633Z,99.20
2022-09-24T06:14:16.787Z,99.50
2022-09-24T06:16:43.638Z,99.30
2022-09-24T06:19:10.436Z,99.60
2022-09-24T06:21:37.260Z,98.70
2022-09-24T06:24:04.200Z,98.30
2022-09-24T06:26:31.173Z,97.70
2022-09-24T06:29:09.827Z,97.30
2022-09-24T06:31:36.749Z,96.90
2022-09-24T06:34:03.648Z,96.50
2022-09-24T06:36:30.422Z,96.10
2022-09-24T06:38:58.602Z,96.20
2022-09-24T06:41:25.402Z,95.90
2022-09-24T06:43:54.609Z,95.40
2022-09-24T06:46:23.259Z,95.50
2022-09-24T06:48:50.156Z,95.00
2022-09-24T06:51:17.334Z,95.20
2022-09-24T06:53:44.098Z,95.10
2022-09-24T06:56:10.848Z,95.10
2022-09-24T06:58:37.635Z,95.10
2022-09-24T07:01:04.864Z,95.30
2022-09-24T07:03:33.701Z,96.00
2022-09-24T07:06:02.923Z,96.60
2022-09-24T07:08:29.933Z,97.30
2022-09-24T07:10:56.792Z,97.50
2022-09-24T07:13:23.800Z,97.50
2022-09-24T07:15:52.391Z,97.10
2022-09-24T07:18:20.563Z,96.30
2022-09-24T07:20:56.937Z,95.70
2022-09-24T07:23:24.048Z,94.70
2022-09-24T07:25:55.319Z,94.40
2022-09-24T07:28:22.078Z,94.20
2022-09-24T07:30:57.425Z,94.00
2022-09-24T07:33:24.333Z,93.60
2022-09-24T07:35:51.199Z,93.30
2022-09-24T07:38:17.940Z,93.20
2022-09-24T07:40:45.060Z,93.20
2022-09-24T07:43:14.105Z,93.00
2022-09-24T07:45:42.062Z,93.30
2022-09-24T07:48:10.617Z,93.30
2022-09-24T07:50:42.568Z,93.60
2022-09-24T07:53:12.517Z,94.00
2022-09-24T07:55:41.256Z,94.40
2022-09-24T07:58:13.812Z,94.50
2022-09-24T08:00:41.201Z,94.80
2022-09-24T08:03:08.236Z,94.60
2022-09-24T08:05:35.158Z,94.80
2022-09-24T08:08:02.419Z,94.70
2022-09-24T08:10:29.407Z,93.80
2022-09-24T08:12:59.403Z,93.70
2022-09-24T08:15:26.295Z,93.70
2022-09-24T08:17:53.240Z,93.50
2022-09-24T08:20:22.030Z,93.20
2022-09-24T08:22:48.846Z,92.70
2022-09-24T08:25:15.686Z,92.60
2022-09-24T08:27:42.489Z,92.20
2022-09-24T08:30:09.995Z,92.50
2022-09-24T08:32:36.906Z,92.80
2022-09-24T08:35:04.100Z,93.00
2022-09-24T08:37:31.537Z,92.90
2022-09-24T08:39:58.372Z,92.70
2022-09-24T08:42:49.449Z,92.50
2022-09-24T08:45:35.988Z,92.00
2022-09-24T08:48:02.985Z,92.10
2022-09-24T08:50:34.002Z,91.90
2022-09-24T08:53:12.203Z,91.90
2022-09-24T08:55:44.311Z,91.60
2022-09-24T08:58:11.048Z,92.00
2022-09-24T09:01:06.469Z,91.80
2022-09-24T09:03:36.575Z,91.20
2022-09-24T09:06:25.888Z,91.50
2022-09-24T09:09:07.348Z,91.30
2022-09-24T09:11:37.082Z,91.10
2022-09-24T09:14:17.606Z,91.00
2022-09-24T09:16:47.814Z,91.20
2022-09-24T09:19:16.157Z,91.10
2022-09-24T09:21:47.909Z,91.10
2022-09-24T09:24:23.359Z,91.00
2022-09-24T09:26:54.653Z,90.80
2022-09-24T09:29:25.504Z,90.80
2022-09-24T09:32:01.672Z,90.50
2022-09-24T09:34:47.352Z,91.00
2022-09-24T09:37:49.481Z,91.00
2022-09-24T09:40:32.127Z,90.90
2022-09-24T09:43:09.091Z,91.00
2022-09-24T09:46:11.162Z,91.00
2022-09-24T09:48:56.427Z,91.00
2022-09-24T09:51:26.499Z,90.60
2022-09-24T09:54:01.196Z,90.80
2022-09-24T09:56:43.797Z,91.20
2022-09-24T09:59:13.670Z,91.00
2022-09-24T10:01:42.544Z,90.70
2022-09-24T10:04:37.185Z,90.50
2022-09-24T10:07:13.304Z,90.80
2022-09-24T10:09:42.248Z,91.00
2022-09-24T10:12:17.890Z,90.90
2022-09-24T10:14:45.139Z,90.90
2022-09-24T10:17:18.933Z,90.60
2022-09-24T10:19:50.839Z,90.50
2022-09-24T10:22:24.709Z,90.70
2022-09-24T10:24:53.060Z,90.60
2022-09-24T10:27:33.868Z,90.80
2022-09-24T10:30:33.672Z,90.60
2022-09-24T10:33:03.158Z,90.70
2022-09-24T10:35:38.703Z,90.90
2022-09-24T10:38:19.986Z,90.60
2022-09-24T10:40:47.954Z,90.40
2022-09-24T10:43:20.679Z,90.40
2022-09-24T10:45:53.436Z,90.10
2022-09-24T10:48:38.775Z,89.20
2022-09-24T10:51:08.406Z,89.60
2022-09-24T10:53:39.538Z,89.80
2022-09-24T10:56:46.118Z,89.30
2022-09-24T10:59:42.507Z,88.70
2022-09-24T11:02:51.416Z,88.80
2022-09-24T11:05:22.238Z,88.50
2022-09-24T11:08:07.117Z,88.10
2022-09-24T11:10:42.633Z,88.50
2022-09-24T11:13:15.831Z,88.90
2022-09-24T11:16:07.221Z,88.90
2022-09-24T11:18:52.805Z,88.20
2022-09-24T11:21:31.545Z,88.60
2022-09-24T11:24:20.075Z,88.80
2022-09-24T11:26:55.732Z,89.10
2022-09-24T11:29:48.555Z,89.60
2022-09-24T11:32:15.234Z,89.50
2022-09-24T11:35:16.284Z,90.00
2022-09-24T11:38:06.690Z,89.80
2022-09-24T11:41:05.035Z,88.80
2022-09-24T11:43:51.663Z,89.70
2022-09-24T11:46:52.375Z,89.50
2022-09-24T11:49:56.559Z,90.00
2022-09-24T11:52:26.130Z,90.40
2022-09-24T11:55:15.949Z,90.40
2022-09-24T11:57:54.296Z,89.70
2022-09-24T12:00:21.650Z,89.20
2022-09-24T12:02:52.675Z,88.20
2022-09-24T12:05:53.328Z,88.80
2022-09-24T12:08:41.871Z,88.20
2022-09-24T12:11:41.316Z,88.40
2022-09-24T12:14:30.416Z,87.90
2022-09-24T12:17:02.828Z,87.10
2022-09-24T12:19:35.432Z,87.30
2022-09-24T12:22:04.156Z,87.00
2022-09-24T12:24:40.292Z,86.70
2022-09-24T12:27:34.478Z,86.40
2022-09-24T12:30:44.318Z,87.40
2022-09-24T12:33:24.474Z,86.50
2022-09-24T12:36:22.462Z,86.20
2022-09-24T12:39:03.545Z,86.30
2022-09-24T12:41:36.143Z,86.30
2022-09-24T12:44:12.273Z,85.00
2022-09-24T12:46:53.206Z,84.70
2022-09-24T12:49:25.952Z,85.80
2022-09-24T12:52:33.309Z,85.70
2022-09-24T12:55:02.939Z,86.20
2022-09-24T12:57:41.803Z,85.40
2022-09-24T13:00:39.151Z,85.30
2022-09-24T13:03:07.782Z,86.20
2022-09-24T13:05:48.125Z,85.80
2022-09-24T13:08:17.792Z,85.20
2022-09-24T13:11:05.737Z,85.80
2022-09-24T13:13:40.862Z,85.90
2022-09-24T13:16:21.268Z,86.30
2022-09-24T13:18:54.240Z,86.40
2022-09-24T13:21:29.672Z,87.20
2022-09-24T13:23:57.297Z,87.10
2022-09-24T13:26:34.339Z,87.70
2022-09-24T13:29:06.445Z,86.90
2022-09-24T13:31:47.850Z,87.30
2022-09-24T13:34:20.540Z,87.90
2022-09-24T13:37:28.640Z,88.60
2022-09-24T13:40:14.332Z,89.00
2022-09-24T13:43:04.471Z,90.10
2022-09-24T13:45:33.577Z,90.20
2022-09-24T13:48:04.463Z,89.50
2022-09-24T13:50:37.957Z,89.90
2022-09-24T13:53:26.709Z,89.60
2022-09-24T13:55:57.168Z,90.30
2022-09-24T13:58:34.679Z,90.60
2022-09-24T14:01:13.025Z,90.90
2022-09-24T14:03:41.438Z,90.90
2022-09-24T14:06:13.400Z,91.10
2022-09-24T14:08:46.922Z,90.40
2022-09-24T14:11:24.472Z,90.50
2022-09-24T14:13:52.207Z,90.90
2022-09-24T14:16:22.171Z,90.80
2022-09-24T14:18:49.629Z,91.00
2022-09-24T14:21:38.192Z,90.90
2022-09-24T14:24:12.649Z,91.40
2022-09-24T14:26:47.042Z,91.60
2022-09-24T14:29:18.770Z,91.70
2022-09-24T14:31:51.209Z,91.40
2022-09-24T14:34:23.409Z,91.40
2022-09-24T14:36:51.206Z,91.50
2022-09-24T14:39:18.031Z,91.40
2022-09-24T14:41:44.909Z,91.70
2022-09-24T14:44:26.935Z,91.90
2022-09-24T14:46:59.581Z,92.40
2022-09-24T14:49:44.361Z,92.30
2022-09-24T14:52:36.159Z,92.40
2022-09-24T14:55:03.001Z,92.40
2022-09-24T14:57:37.260Z,92.40
2022-09-24T15:00:25.718Z,92.50
2022-09-24T15:02:57.019Z,92.80
2022-09-24T15:05:26.437Z,93.00
2022-09-24T15:08:12.863Z,93.10
2022-09-24T15:10:42.830Z,93.40
2022-09-24T15:13:14.709Z,93.20
2022-09-24T15:15:41.610Z,93.30
2022-09-24T15:18:12.014Z,93.60
2022-09-24T15:20:38.850Z,94.00
2022-09-24T15:23:05.795Z,94.10
2022-09-24T15:25:32.600Z,94.20
2022-09-24T15:27:59.441Z,94.30
2022-09-24T15:30:26.185Z,94.40
2022-09-24T15:32:53.041Z,94.60
2022-09-24T15:35:20.029Z,94.80
2022-09-24T15:37:48.660Z,94.90
2022-09-24T15:40:20.804Z,95.20
2022-09-24T15:42:47.648Z,95.40
2022-09-24T15:45:21.339Z,95.80
2022-09-24T15:47:49.443Z,95.90
2022-09-24T15:50:16.571Z,96.20
2022-09-24T15:52:49.853Z,96.50
2022-09-24T15:55:19.140Z,96.80
2022-09-24T15:57:46.882Z,97.20
2022-09-24T16:00:18.710Z,97.70
2022-09-24T16:02:50.517Z,98.10
2022-09-24T16:05:18.193Z,98.30
2022-09-24T16:07:45.532Z,98.60
2022-09-24T16:10:13.850Z,99.00
2022-09-24T16:12:41.848Z,99.60
2022-09-24T16:15:14.295Z,99.50
2022-09-24T16:17:41.220Z,99.90
2022-09-24T16:20:09.843Z,99.70
2022-09-24T16:22:36.665Z,99.90
2022-09-24T16:25:03.610Z,99.90
2022-09-24T16:27:31.468Z,99.90
2022-09-24T16:29:58.410Z,99.90
2022-09-24T16:32:25.231Z,99.90
2022-09-24T16:34:54.848Z,99.90
2022-09-24T16:37:21.854Z,99.90
2022-09-24T16:39:48.844Z,99.90
2022-09-24T16:42:15.619Z,99.90
2022-09-24T16:44:42.396Z,99.90
2022-09-24T16:47:09.279Z,99.90
2022-09-24T16:49:36.258Z,99.90
2022-09-24T16:52:03.249Z,99.90
2022-09-24T16:54:31.231Z,99.90
2022-09-24T16:56:58.038Z,99.90
2022-09-24T16:59:25.145Z,99.90
2022-09-24T17:01:53.676Z,99.90
2022-09-24T17:04:22.476Z,99.90
2022-09-24T17:06:49.493Z,99.90
2022-09-24T17:09:34.674Z,99.90
2022-09-24T17:12:01.720Z,99.90
2022-09-24T17:14:28.713Z,99.90
2022-09-24T17:16:55.492Z,99.90
2022-09-24T17:19:22.257Z,99.90
2022-09-24T17:21:52.175Z,99.90
2022-09-24T17:24:21.433Z,99.90
2022-09-24T17:26:49.027Z,99.90
2022-09-24T17:29:15.906Z,99.90
2022-09-24T17:31:42.717Z,99.90
2022-09-24T17:34:12.362Z,99.90
2022-09-24T17:36:39.133Z,99.90
2022-09-24T17:39:06.585Z,99.90
2022-09-24T17:41:34.331Z,99.90
2022-09-24T17:44:01.857Z,99.90
2022-09-24T17:46:31.417Z,99.90
2022-09-24T17:49:00.089Z,99.90
2022-09-24T17:51:36.460Z,99.90
2022-09-24T17:54:09.553Z,99.90
2022-09-24T17:56:40.590Z,99.90
2022-09-24T17:59:17.018Z,99.90
2022-09-24T18:01:45.369Z,99.90
2022-09-24T18:04:18.008Z,99.90
2022-09-24T18:06:46.314Z,99.90
2022-09-24T18:09:14.282Z,99.90
2022-09-24T18:12:04.406Z,99.90
2022-09-24T18:14:31.260Z,99.90
2022-09-24T18:16:59.874Z,99.90
2022-09-24T18:19:26.998Z,99.90
2022-09-24T18:21:54.606Z,99.90
2022-09-24T18:24:23.321Z,99.90
2022-09-24T18:26:52.260Z,99.90
2022-09-24T18:29:20.102Z,99.90
2022-09-24T18:31:47.008Z,99.90
2022-09-24T18:34:16.051Z,99.90
2022-09-24T18:36:44.333Z,99.90
2022-09-24T18:39:13.633Z,99.90
2022-09-24T18:41:41.766Z,99.90
2022-09-24T18:44:09.716Z,99.90
2022-09-24T18:46:36.645Z,99.90
2022-09-24T18:49:06.241Z,99.90
2022-09-24T18:51:35.546Z,99.90
2022-09-24T18:54:08.335Z,99.90
2022-09-24T18:56:36.544Z,99.90
2022-09-24T18:59:15.889Z,99.90
2022-09-24T19:01:43.933Z,99.90
2022-09-24T19:04:12.970Z,99.90
2022-09-24T19:06:43.046Z,99.90
2022-09-24T19:09:13.416Z,99.90
2022-09-24T19:11:41.066Z,99.90
2022-09-24T19:14:08.098Z,99.90
2022-09-24T19:16:35.099Z,99.90
2022-09-24T19:19:01.947Z,99.90
2022-09-24T19:21:29.194Z,99.90
2022-09-24T19:23:57.892Z,99.90
2022-09-24T19:26:28.112Z,99.90
2022-09-24T19:28:55.538Z,99.90
2022-09-24T19:31:26.850Z,99.90
2022-09-24T19:33:54.544Z,99.90
2022-09-24T19:36:22.287Z,99.90
2022-09-24T19:38:50.206Z,99.90
2022-09-24T19:41:21.616Z,99.90
2022-09-24T19:43:52.032Z,99.90
2022-09-24T19:46:24.346Z,99.90
2022-09-24T19:48:51.712Z,99.90
2022-09-24T19:51:27.859Z,99.90
2022-09-24T19:53:57.169Z,99.90
2022-09-24T19:56:25.505Z,99.90
2022-09-24T19:58:57.621Z,99.90
2022-09-24T20:01:30.556Z,99.90
2022-09-24T20:03:59.438Z,99.90
2022-09-24T20:06:31.702Z,99.90
2022-09-24T20:08:59.303Z,99.90
2022-09-24T20:11:26.997Z,99.90
2022-09-24T20:13:56.083Z,99.90
2022-09-24T20:16:27.936Z,99.90
2022-09-24T20:18:57.750Z,99.90
2022-09-24T20:21:27.761Z,99.90
2022-09-24T20:23:57.500Z,99.90
2022-09-24T20:26:44.170Z,99.90
2022-09-24T20:29:11.973Z,99.90
2022-09-24T20:31:51.905Z,99.90
2022-09-24T20:34:34.296Z,99.90
2022-09-24T20:37:02.970Z,99.90
2022-09-24T20:39:30.917Z,99.90
2022-09-24T20:42:05.814Z,99.90
2022-09-24T20:44:33.489Z,99.90
2022-09-24T20:47:00.715Z,99.90
2022-09-24T20:49:27.854Z,99.90
2022-09-24T20:51:57.299Z,99.90
2022-09-24T20:54:25.304Z,99.90
2022-09-24T20:56:52.087Z,99.90
2022-09-24T20:59:18.940Z,99.90
2022-09-24T21:01:47.091Z,99.90
2022-09-24T21:04:14.035Z,99.90
2022-09-24T21:06:40.886Z,99.90
2022-09-24T21:09:07.895Z,99.90
2022-09-24T21:11:34.676Z,99.90
2022-09-24T21:14:03.093Z,99.90
2022-09-24T21:16:32.769Z,99.90
2022-09-24T21:19:00.609Z,99.90
2022-09-24T21:21:32.873Z,99.90
2022-09-24T21:24:00.685Z,99.90
2022-09-24T21:26:36.233Z,99.90
2022-09-24T21:29:08.193Z,99.90
2022-09-24T21:31:36.653Z,99.90
2022-09-24T21:34:07.010Z,99.90
2022-09-24T21:36:42.896Z,99.90
2022-09-24T21:39:19.498Z,99.90
2022-09-24T21:41:51.284Z,99.90
2022-09-24T21:44:22.583Z,99.90
2022-09-24T21:46:52.410Z,99.90
2022-09-24T21:49:20.163Z,99.90
2022-09-24T21:51:47.413Z,99.90
2022-09-24T21:54:17.265Z,99.90
2022-09-24T21:56:44.981Z,99.90
2022-09-24T21:59:30.389Z,99.90
2022-09-24T22:01:57.166Z,99.90
2022-09-24T22:04:24.081Z,99.90
2022-09-24T22:06:51.204Z,99.90
2022-09-24T22:09:18.792Z,99.90
2022-09-24T22:11:46.025Z,99.90
2022-09-24T22:14:13.450Z,99.90
2022-09-24T22:16:40.721Z,99.90
2022-09-24T22:19:10.840Z,99.90
2022-09-24T22:21:37.628Z,99.90
2022-09-24T22:24:05.432Z,99.90
2022-09-24T22:26:32.499Z,99.90
2022-09-24T22:28:59.743Z,99.90
2022-09-24T22:31:27.316Z,99.90
2022-09-24T22:34:12.693Z,99.90
2022-09-24T22:36:39.629Z,99.90
2022-09-24T22:39:07.494Z,99.90
2022-09-24T22:41:37.823Z,99.90
2022-09-24T22:44:05.441Z,99.90
2022-09-24T22:46:33.286Z,99.90
2022-09-24T22:49:00.225Z,99.90
2022-09-24T22:51:27.594Z,99.90
2022-09-24T22:53:55.618Z,99.90
2022-09-24T22:56:25.176Z,99.90
2022-09-24T22:58:57.930Z,99.90
2022-09-24T23:01:33.483Z,99.90
2022-09-24T23:04:01.292Z,99.90
2022-09-24T23:06:28.679Z,99.90
2022-09-24T23:08:55.557Z,99.90
2022-09-24T23:11:34.260Z,99.90
2022-09-24T23:14:19.052Z,99.90
2022-09-24T23:16:46.840Z,99.90
2022-09-24T23:19:19.178Z,99.90
2022-09-24T23:21:46.060Z,99.90
2022-09-24T23:24:18.797Z,99.90
2022-09-24T23:26:46.413Z,99.90
2022-09-24T23:29:14.481Z,99.90
2022-09-24T23:31:41.326Z,99.90
2022-09-24T23:34:08.150Z,99.90
2022-09-24T23:36:35.893Z,99.90
2022-09-24T23:39:03.658Z,99.90
2022-09-24T23:41:31.774Z,99.90
2022-09-24T23:43:59.823Z,99.90
2022-09-24T23:46:27.435Z,99.90
2022-09-24T23:48:54.717Z,99.90
2022-09-24T23:51:21.908Z,99.90
2022-09-24T23:53:48.866Z,99.90
2022-09-24T23:56:15.692Z,99.90
2022-09-24T23:58:42.572Z,99.90
